sensor_id;sensor_type;location;lat;lon;timestamp;P1;durP1;ratioP1;P2;durP2;ratioP2
6346;SDS011;3206;42.666;23.600;2023-05-07T00:02:14;0.90;;;0.90;;
6346;SDS011;3206;42.666;23.600;2023-05-07T00:04:40;0.43;;;0.43;;
6346;SDS011;3206;42.666;23.600;2023-05-07T00:07:06;0.40;;;0.40;;
6346;SDS011;3206;42.666;23.600;2023-05-07T00:09:33;0.40;;;0.40;;
6346;SDS011;3206;42.666;23.600;2023-05-07T00:11:59;0.60;;;0.60;;
6346;SDS011;3206;42.666;23.600;2023-05-07T00:14:27;0.93;;;0.93;;
6346;SDS011;3206;42.666;23.600;2023-05-07T00:16:55;0.60;;;0.60;;
6346;SDS011;3206;42.666;23.600;2023-05-07T00:19:21;0.40;;;0.40;;
6346;SDS011;3206;42.666;23.600;2023-05-07T00:21:48;0.97;;;0.97;;
6346;SDS011;3206;42.666;23.600;2023-05-07T00:24:14;0.60;;;0.60;;
6346;SDS011;3206;42.666;23.600;2023-05-07T00:26:41;0.43;;;0.43;;
6346;SDS011;3206;42.666;23.600;2023-05-07T00:29:07;0.73;;;0.73;;
6346;SDS011;3206;42.666;23.600;2023-05-07T00:31:35;0.60;;;0.60;;
6346;SDS011;3206;42.666;23.600;2023-05-07T00:34:01;0.30;;;0.30;;
6346;SDS011;3206;42.666;23.600;2023-05-07T00:36:27;0.53;;;0.53;;
6346;SDS011;3206;42.666;23.600;2023-05-07T00:38:54;0.40;;;0.40;;
6346;SDS011;3206;42.666;23.600;2023-05-07T00:41:20;0.50;;;0.50;;
6346;SDS011;3206;42.666;23.600;2023-05-07T00:43:47;0.70;;;0.70;;
6346;SDS011;3206;42.666;23.600;2023-05-07T00:46:16;0.50;;;0.50;;
6346;SDS011;3206;42.666;23.600;2023-05-07T00:48:44;0.50;;;0.50;;
6346;SDS011;3206;42.666;23.600;2023-05-07T00:51:11;0.50;;;0.50;;
6346;SDS011;3206;42.666;23.600;2023-05-07T00:53:37;0.57;;;0.57;;
6346;SDS011;3206;42.666;23.600;2023-05-07T00:56:04;0.33;;;0.33;;
6346;SDS011;3206;42.666;23.600;2023-05-07T00:58:31;1.13;;;0.50;;
6346;SDS011;3206;42.666;23.600;2023-05-07T01:00:57;0.80;;;0.80;;
6346;SDS011;3206;42.666;23.600;2023-05-07T01:03:24;0.20;;;0.20;;
6346;SDS011;3206;42.666;23.600;2023-05-07T01:05:52;0.60;;;0.60;;
6346;SDS011;3206;42.666;23.600;2023-05-07T01:08:19;0.40;;;0.40;;
6346;SDS011;3206;42.666;23.600;2023-05-07T01:10:46;0.30;;;0.30;;
6346;SDS011;3206;42.666;23.600;2023-05-07T01:13:12;0.30;;;0.30;;
6346;SDS011;3206;42.666;23.600;2023-05-07T01:15:40;0.53;;;0.53;;
6346;SDS011;3206;42.666;23.600;2023-05-07T01:18:06;0.57;;;0.57;;
6346;SDS011;3206;42.666;23.600;2023-05-07T01:20:33;0.50;;;0.50;;
6346;SDS011;3206;42.666;23.600;2023-05-07T01:23:00;0.37;;;0.37;;
6346;SDS011;3206;42.666;23.600;2023-05-07T01:25:27;0.30;;;0.30;;
6346;SDS011;3206;42.666;23.600;2023-05-07T01:27:53;0.60;;;0.60;;
6346;SDS011;3206;42.666;23.600;2023-05-07T01:30:20;0.27;;;0.27;;
6346;SDS011;3206;42.666;23.600;2023-05-07T01:32:47;0.40;;;0.40;;
6346;SDS011;3206;42.666;23.600;2023-05-07T01:35:15;0.67;;;0.67;;
6346;SDS011;3206;42.666;23.600;2023-05-07T01:37:44;0.90;;;0.90;;
6346;SDS011;3206;42.666;23.600;2023-05-07T01:40:13;0.70;;;0.70;;
6346;SDS011;3206;42.666;23.600;2023-05-07T01:42:39;0.37;;;0.37;;
6346;SDS011;3206;42.666;23.600;2023-05-07T01:45:06;0.33;;;0.33;;
6346;SDS011;3206;42.666;23.600;2023-05-07T01:47:33;0.40;;;0.40;;
6346;SDS011;3206;42.666;23.600;2023-05-07T01:49:59;0.40;;;0.40;;
6346;SDS011;3206;42.666;23.600;2023-05-07T01:52:26;0.37;;;0.37;;
6346;SDS011;3206;42.666;23.600;2023-05-07T01:54:53;0.63;;;0.63;;
6346;SDS011;3206;42.666;23.600;2023-05-07T01:57:21;0.87;;;0.87;;
6346;SDS011;3206;42.666;23.600;2023-05-07T01:59:47;0.47;;;0.47;;
6346;SDS011;3206;42.666;23.600;2023-05-07T02:02:14;0.57;;;0.57;;
6346;SDS011;3206;42.666;23.600;2023-05-07T02:04:40;0.40;;;0.40;;
6346;SDS011;3206;42.666;23.600;2023-05-07T02:07:06;0.50;;;0.50;;
6346;SDS011;3206;42.666;23.600;2023-05-07T02:09:33;0.50;;;0.50;;
6346;SDS011;3206;42.666;23.600;2023-05-07T02:11:59;0.60;;;0.60;;
6346;SDS011;3206;42.666;23.600;2023-05-07T02:14:27;0.43;;;0.43;;
6346;SDS011;3206;42.666;23.600;2023-05-07T02:16:54;0.50;;;0.50;;
6346;SDS011;3206;42.666;23.600;2023-05-07T02:19:20;0.50;;;0.50;;
6346;SDS011;3206;42.666;23.600;2023-05-07T02:21:47;0.30;;;0.30;;
6346;SDS011;3206;42.666;23.600;2023-05-07T02:24:13;0.50;;;0.50;;
6346;SDS011;3206;42.666;23.600;2023-05-07T02:26:40;0.53;;;0.53;;
6346;SDS011;3206;42.666;23.600;2023-05-07T02:29:06;0.90;;;0.90;;
6346;SDS011;3206;42.666;23.600;2023-05-07T02:31:34;0.57;;;0.57;;
6346;SDS011;3206;42.666;23.600;2023-05-07T02:34:00;0.40;;;0.40;;
6346;SDS011;3206;42.666;23.600;2023-05-07T02:36:26;0.40;;;0.40;;
6346;SDS011;3206;42.666;23.600;2023-05-07T02:38:53;0.60;;;0.60;;
6346;SDS011;3206;42.666;23.600;2023-05-07T02:41:20;0.63;;;0.53;;
6346;SDS011;3206;42.666;23.600;2023-05-07T02:43:46;0.30;;;0.30;;
6346;SDS011;3206;42.666;23.600;2023-05-07T02:46:13;0.90;;;0.90;;
6346;SDS011;3206;42.666;23.600;2023-05-07T02:48:41;0.33;;;0.33;;
6346;SDS011;3206;42.666;23.600;2023-05-07T02:51:08;0.53;;;0.53;;
6346;SDS011;3206;42.666;23.600;2023-05-07T02:53:34;0.40;;;0.40;;
6346;SDS011;3206;42.666;23.600;2023-05-07T02:56:00;0.80;;;0.80;;
6346;SDS011;3206;42.666;23.600;2023-05-07T02:58:27;1.73;;;1.07;;
6346;SDS011;3206;42.666;23.600;2023-05-07T03:00:54;0.50;;;0.50;;
6346;SDS011;3206;42.666;23.600;2023-05-07T03:03:20;0.87;;;0.87;;
6346;SDS011;3206;42.666;23.600;2023-05-07T03:05:48;0.60;;;0.60;;
6346;SDS011;3206;42.666;23.600;2023-05-07T03:08:15;0.60;;;0.60;;
6346;SDS011;3206;42.666;23.600;2023-05-07T03:10:41;0.50;;;0.50;;
6346;SDS011;3206;42.666;23.600;2023-05-07T03:13:07;1.33;;;0.63;;
6346;SDS011;3206;42.666;23.600;2023-05-07T03:15:34;0.47;;;0.47;;
6346;SDS011;3206;42.666;23.600;2023-05-07T03:18:00;0.93;;;0.87;;
6346;SDS011;3206;42.666;23.600;2023-05-07T03:20:26;0.57;;;0.57;;
6346;SDS011;3206;42.666;23.600;2023-05-07T03:22:54;0.43;;;0.43;;
6346;SDS011;3206;42.666;23.600;2023-05-07T03:25:21;1.43;;;0.97;;
6346;SDS011;3206;42.666;23.600;2023-05-07T03:27:47;0.33;;;0.33;;
6346;SDS011;3206;42.666;23.600;2023-05-07T03:30:13;0.50;;;0.50;;
6346;SDS011;3206;42.666;23.600;2023-05-07T03:32:40;0.80;;;0.80;;
6346;SDS011;3206;42.666;23.600;2023-05-07T03:35:06;2.23;;;0.87;;
6346;SDS011;3206;42.666;23.600;2023-05-07T03:37:33;0.47;;;0.47;;
6346;SDS011;3206;42.666;23.600;2023-05-07T03:40:01;0.53;;;0.53;;
6346;SDS011;3206;42.666;23.600;2023-05-07T03:42:28;1.33;;;0.83;;
6346;SDS011;3206;42.666;23.600;2023-05-07T03:44:54;1.77;;;1.07;;
6346;SDS011;3206;42.666;23.600;2023-05-07T03:47:21;1.27;;;0.97;;
6346;SDS011;3206;42.666;23.600;2023-05-07T03:49:47;0.90;;;0.90;;
6346;SDS011;3206;42.666;23.600;2023-05-07T03:52:14;0.47;;;0.47;;
6346;SDS011;3206;42.666;23.600;2023-05-07T03:54:40;0.80;;;0.80;;
6346;SDS011;3206;42.666;23.600;2023-05-07T03:57:08;0.43;;;0.43;;
6346;SDS011;3206;42.666;23.600;2023-05-07T03:59:34;0.37;;;0.37;;
6346;SDS011;3206;42.666;23.600;2023-05-07T04:02:01;0.70;;;0.70;;
6346;SDS011;3206;42.666;23.600;2023-05-07T04:04:27;0.70;;;0.70;;
6346;SDS011;3206;42.666;23.600;2023-05-07T04:06:57;0.90;;;0.90;;
6346;SDS011;3206;42.666;23.600;2023-05-07T04:09:24;2.57;;;1.33;;
6346;SDS011;3206;42.666;23.600;2023-05-07T04:11:50;0.20;;;0.20;;
6346;SDS011;3206;42.666;23.600;2023-05-07T04:14:18;0.93;;;0.93;;
6346;SDS011;3206;42.666;23.600;2023-05-07T04:16:44;0.70;;;0.70;;
6346;SDS011;3206;42.666;23.600;2023-05-07T04:19:11;0.57;;;0.57;;
6346;SDS011;3206;42.666;23.600;2023-05-07T04:21:37;0.70;;;0.70;;
6346;SDS011;3206;42.666;23.600;2023-05-07T04:24:04;2.33;;;1.40;;
6346;SDS011;3206;42.666;23.600;2023-05-07T04:26:30;1.40;;;1.30;;
6346;SDS011;3206;42.666;23.600;2023-05-07T04:28:57;1.00;;;1.00;;
6346;SDS011;3206;42.666;23.600;2023-05-07T04:31:25;1.00;;;1.00;;
6346;SDS011;3206;42.666;23.600;2023-05-07T04:33:52;1.30;;;1.20;;
6346;SDS011;3206;42.666;23.600;2023-05-07T04:36:18;0.43;;;0.43;;
6346;SDS011;3206;42.666;23.600;2023-05-07T04:38:44;0.87;;;0.87;;
6346;SDS011;3206;42.666;23.600;2023-05-07T04:41:12;0.60;;;0.60;;
6346;SDS011;3206;42.666;23.600;2023-05-07T04:43:39;0.50;;;0.50;;
6346;SDS011;3206;42.666;23.600;2023-05-07T04:46:06;1.30;;;0.77;;
6346;SDS011;3206;42.666;23.600;2023-05-07T04:48:34;0.60;;;0.60;;
6346;SDS011;3206;42.666;23.600;2023-05-07T04:51:00;1.30;;;1.20;;
6346;SDS011;3206;42.666;23.600;2023-05-07T04:53:27;0.90;;;0.90;;
6346;SDS011;3206;42.666;23.600;2023-05-07T04:55:56;0.80;;;0.80;;
6346;SDS011;3206;42.666;23.600;2023-05-07T04:58:23;14.33;;;1.30;;
6346;SDS011;3206;42.666;23.600;2023-05-07T05:00:50;0.70;;;0.70;;
6346;SDS011;3206;42.666;23.600;2023-05-07T05:03:16;1.20;;;1.13;;
6346;SDS011;3206;42.666;23.600;2023-05-07T05:05:44;0.90;;;0.90;;
6346;SDS011;3206;42.666;23.600;2023-05-07T05:08:11;1.47;;;1.27;;
6346;SDS011;3206;42.666;23.600;2023-05-07T05:10:37;1.00;;;1.00;;
6346;SDS011;3206;42.666;23.600;2023-05-07T05:13:03;1.17;;;0.93;;
6346;SDS011;3206;42.666;23.600;2023-05-07T05:15:30;0.97;;;0.90;;
6346;SDS011;3206;42.666;23.600;2023-05-07T05:17:56;1.00;;;1.00;;
6346;SDS011;3206;42.666;23.600;2023-05-07T05:20:22;0.70;;;0.70;;
6346;SDS011;3206;42.666;23.600;2023-05-07T05:22:50;1.47;;;1.07;;
6346;SDS011;3206;42.666;23.600;2023-05-07T05:25:17;3.40;;;1.07;;
6346;SDS011;3206;42.666;23.600;2023-05-07T05:27:43;1.47;;;1.47;;
6346;SDS011;3206;42.666;23.600;2023-05-07T05:30:10;1.40;;;1.30;;
6346;SDS011;3206;42.666;23.600;2023-05-07T05:32:36;0.50;;;0.50;;
6346;SDS011;3206;42.666;23.600;2023-05-07T05:35:03;0.75;;;0.75;;
6346;SDS011;3206;42.666;23.600;2023-05-07T05:37:29;0.77;;;0.77;;
6346;SDS011;3206;42.666;23.600;2023-05-07T05:39:57;1.17;;;1.05;;
6346;SDS011;3206;42.666;23.600;2023-05-07T05:42:24;0.52;;;0.52;;
6346;SDS011;3206;42.666;23.600;2023-05-07T05:44:50;0.90;;;0.90;;
6346;SDS011;3206;42.666;23.600;2023-05-07T05:47:16;1.10;;;1.00;;
6346;SDS011;3206;42.666;23.600;2023-05-07T05:49:43;1.05;;;1.00;;
6346;SDS011;3206;42.666;23.600;2023-05-07T05:52:09;0.88;;;0.88;;
6346;SDS011;3206;42.666;23.600;2023-05-07T05:54:36;2.58;;;1.10;;
6346;SDS011;3206;42.666;23.600;2023-05-07T05:57:03;1.02;;;1.02;;
6346;SDS011;3206;42.666;23.600;2023-05-07T05:59:31;0.70;;;0.57;;
6346;SDS011;3206;42.666;23.600;2023-05-07T06:01:57;1.80;;;1.70;;
6346;SDS011;3206;42.666;23.600;2023-05-07T06:04:23;2.33;;;0.90;;
6346;SDS011;3206;42.666;23.600;2023-05-07T06:06:50;3.20;;;1.13;;
6346;SDS011;3206;42.666;23.600;2023-05-07T06:09:16;1.38;;;1.08;;
6346;SDS011;3206;42.666;23.600;2023-05-07T06:11:42;0.77;;;0.77;;
6346;SDS011;3206;42.666;23.600;2023-05-07T06:14:10;0.57;;;0.57;;
6346;SDS011;3206;42.666;23.600;2023-05-07T06:16:37;1.45;;;1.27;;
6346;SDS011;3206;42.666;23.600;2023-05-07T06:19:03;0.40;;;0.40;;
6346;SDS011;3206;42.666;23.600;2023-05-07T06:21:30;0.70;;;0.70;;
6346;SDS011;3206;42.666;23.600;2023-05-07T06:23:57;0.77;;;0.77;;
6346;SDS011;3206;42.666;23.600;2023-05-07T06:26:23;1.92;;;1.77;;
6346;SDS011;3206;42.666;23.600;2023-05-07T06:28:50;3.67;;;2.72;;
6346;SDS011;3206;42.666;23.600;2023-05-07T06:31:18;3.58;;;1.45;;
6346;SDS011;3206;42.666;23.600;2023-05-07T06:33:46;1.17;;;1.05;;
6346;SDS011;3206;42.666;23.600;2023-05-07T06:36:12;0.88;;;0.88;;
6346;SDS011;3206;42.666;23.600;2023-05-07T06:38:39;1.45;;;1.35;;
6346;SDS011;3206;42.666;23.600;2023-05-07T06:41:05;1.02;;;1.02;;
6346;SDS011;3206;42.666;23.600;2023-05-07T06:43:32;0.90;;;0.90;;
6346;SDS011;3206;42.666;23.600;2023-05-07T06:45:58;1.02;;;0.93;;
6346;SDS011;3206;42.666;23.600;2023-05-07T06:48:26;1.75;;;1.00;;
6346;SDS011;3206;42.666;23.600;2023-05-07T06:50:52;1.25;;;1.23;;
6346;SDS011;3206;42.666;23.600;2023-05-07T06:53:20;0.50;;;0.50;;
6346;SDS011;3206;42.666;23.600;2023-05-07T06:55:47;3.70;;;1.15;;
6346;SDS011;3206;42.666;23.600;2023-05-07T06:58:13;0.77;;;0.77;;
6346;SDS011;3206;42.666;23.600;2023-05-07T07:00:39;1.95;;;1.17;;
6346;SDS011;3206;42.666;23.600;2023-05-07T07:03:06;2.20;;;2.00;;
6346;SDS011;3206;42.666;23.600;2023-05-07T07:05:34;0.75;;;0.75;;
6346;SDS011;3206;42.666;23.600;2023-05-07T07:08:00;1.20;;;1.20;;
6346;SDS011;3206;42.666;23.600;2023-05-07T07:10:26;3.60;;;1.40;;
6346;SDS011;3206;42.666;23.600;2023-05-07T07:12:53;2.00;;;1.65;;
6346;SDS011;3206;42.666;23.600;2023-05-07T07:15:20;0.75;;;0.75;;
6346;SDS011;3206;42.666;23.600;2023-05-07T07:17:46;1.40;;;1.30;;
6346;SDS011;3206;42.666;23.600;2023-05-07T07:20:13;2.55;;;1.35;;
6346;SDS011;3206;42.666;23.600;2023-05-07T07:22:41;1.40;;;1.30;;
6346;SDS011;3206;42.666;23.600;2023-05-07T07:25:08;2.17;;;1.38;;
6346;SDS011;3206;42.666;23.600;2023-05-07T07:27:34;2.90;;;2.05;;
6346;SDS011;3206;42.666;23.600;2023-05-07T07:30:01;1.15;;;1.15;;
6346;SDS011;3206;42.666;23.600;2023-05-07T07:32:27;2.38;;;1.40;;
6346;SDS011;3206;42.666;23.600;2023-05-07T07:34:54;2.10;;;1.58;;
6346;SDS011;3206;42.666;23.600;2023-05-07T07:37:20;3.95;;;1.67;;
6346;SDS011;3206;42.666;23.600;2023-05-07T07:39:48;0.85;;;0.85;;
6346;SDS011;3206;42.666;23.600;2023-05-07T07:42:14;2.08;;;1.23;;
6346;SDS011;3206;42.666;23.600;2023-05-07T07:44:40;1.77;;;1.63;;
6346;SDS011;3206;42.666;23.600;2023-05-07T07:47:07;0.95;;;0.95;;
6346;SDS011;3206;42.666;23.600;2023-05-07T07:49:33;1.25;;;1.25;;
6346;SDS011;3206;42.666;23.600;2023-05-07T07:52:01;0.98;;;0.98;;
6346;SDS011;3206;42.666;23.600;2023-05-07T07:54:28;1.80;;;1.65;;
6346;SDS011;3206;42.666;23.600;2023-05-07T07:56:56;1.25;;;1.25;;
6346;SDS011;3206;42.666;23.600;2023-05-07T07:59:23;1.02;;;0.98;;
6346;SDS011;3206;42.666;23.600;2023-05-07T08:01:49;0.95;;;0.95;;
6346;SDS011;3206;42.666;23.600;2023-05-07T08:04:17;1.27;;;1.27;;
6346;SDS011;3206;42.666;23.600;2023-05-07T08:06:43;1.73;;;1.63;;
6346;SDS011;3206;42.666;23.600;2023-05-07T08:09:10;1.70;;;1.08;;
6346;SDS011;3206;42.666;23.600;2023-05-07T08:11:36;1.33;;;1.30;;
6346;SDS011;3206;42.666;23.600;2023-05-07T08:14:04;1.15;;;1.15;;
6346;SDS011;3206;42.666;23.600;2023-05-07T08:16:30;0.77;;;0.77;;
6346;SDS011;3206;42.666;23.600;2023-05-07T08:18:57;1.60;;;1.50;;
6346;SDS011;3206;42.666;23.600;2023-05-07T08:21:23;2.53;;;1.50;;
6346;SDS011;3206;42.666;23.600;2023-05-07T08:23:49;0.95;;;0.95;;
6346;SDS011;3206;42.666;23.600;2023-05-07T08:26:16;1.13;;;1.13;;
6346;SDS011;3206;42.666;23.600;2023-05-07T08:28:42;1.00;;;1.00;;
6346;SDS011;3206;42.666;23.600;2023-05-07T08:31:10;1.00;;;0.93;;
6346;SDS011;3206;42.666;23.600;2023-05-07T08:33:36;1.00;;;0.93;;
6346;SDS011;3206;42.666;23.600;2023-05-07T08:36:03;0.80;;;0.80;;
6346;SDS011;3206;42.666;23.600;2023-05-07T08:38:30;0.50;;;0.50;;
6346;SDS011;3206;42.666;23.600;2023-05-07T08:40:57;0.70;;;0.70;;
6346;SDS011;3206;42.666;23.600;2023-05-07T08:43:23;0.98;;;0.98;;
6346;SDS011;3206;42.666;23.600;2023-05-07T08:45:53;2.30;;;1.23;;
6346;SDS011;3206;42.666;23.600;2023-05-07T08:48:21;1.15;;;1.08;;
6346;SDS011;3206;42.666;23.600;2023-05-07T08:50:48;2.35;;;1.35;;
6346;SDS011;3206;42.666;23.600;2023-05-07T08:53:14;1.02;;;0.95;;
6346;SDS011;3206;42.666;23.600;2023-05-07T08:55:42;1.85;;;1.60;;
6346;SDS011;3206;42.666;23.600;2023-05-07T08:58:08;1.02;;;1.02;;
6346;SDS011;3206;42.666;23.600;2023-05-07T09:00:35;1.50;;;1.13;;
6346;SDS011;3206;42.666;23.600;2023-05-07T09:03:02;1.60;;;1.50;;
6346;SDS011;3206;42.666;23.600;2023-05-07T09:05:30;0.98;;;0.80;;
6346;SDS011;3206;42.666;23.600;2023-05-07T09:07:58;1.38;;;1.30;;
6346;SDS011;3206;42.666;23.600;2023-05-07T09:10:25;1.13;;;1.05;;
6346;SDS011;3206;42.666;23.600;2023-05-07T09:12:52;22.33;;;1.10;;
6346;SDS011;3206;42.666;23.600;2023-05-07T09:15:18;1.95;;;1.08;;
6346;SDS011;3206;42.666;23.600;2023-05-07T09:17:44;1.33;;;1.23;;
6346;SDS011;3206;42.666;23.600;2023-05-07T09:20:11;1.30;;;1.10;;
6346;SDS011;3206;42.666;23.600;2023-05-07T09:22:39;1.33;;;0.82;;
6346;SDS011;3206;42.666;23.600;2023-05-07T09:25:06;1.40;;;0.77;;
6346;SDS011;3206;42.666;23.600;2023-05-07T09:27:32;1.80;;;1.05;;
6346;SDS011;3206;42.666;23.600;2023-05-07T09:29:59;2.58;;;0.88;;
6346;SDS011;3206;42.666;23.600;2023-05-07T09:32:25;0.95;;;0.80;;
6346;SDS011;3206;42.666;23.600;2023-05-07T09:34:52;1.02;;;1.00;;
6346;SDS011;3206;42.666;23.600;2023-05-07T09:37:19;0.95;;;0.95;;
6346;SDS011;3206;42.666;23.600;2023-05-07T09:39:47;1.60;;;1.30;;
6346;SDS011;3206;42.666;23.600;2023-05-07T09:42:14;1.08;;;0.98;;
6346;SDS011;3206;42.666;23.600;2023-05-07T09:44:40;0.93;;;0.90;;
6346;SDS011;3206;42.666;23.600;2023-05-07T09:47:07;0.85;;;0.82;;
6346;SDS011;3206;42.666;23.600;2023-05-07T09:49:34;0.85;;;0.85;;
6346;SDS011;3206;42.666;23.600;2023-05-07T09:52:02;1.38;;;1.02;;
6346;SDS011;3206;42.666;23.600;2023-05-07T09:54:28;4.57;;;1.35;;
6346;SDS011;3206;42.666;23.600;2023-05-07T09:56:57;1.05;;;1.05;;
6346;SDS011;3206;42.666;23.600;2023-05-07T09:59:24;1.17;;;1.02;;
6346;SDS011;3206;42.666;23.600;2023-05-07T10:01:51;1.10;;;0.98;;
6346;SDS011;3206;42.666;23.600;2023-05-07T10:04:18;2.63;;;1.15;;
6346;SDS011;3206;42.666;23.600;2023-05-07T10:06:46;0.82;;;0.55;;
6346;SDS011;3206;42.666;23.600;2023-05-07T10:09:12;0.60;;;0.60;;
6346;SDS011;3206;42.666;23.600;2023-05-07T10:11:40;0.70;;;0.70;;
6346;SDS011;3206;42.666;23.600;2023-05-07T10:14:08;0.43;;;0.43;;
6346;SDS011;3206;42.666;23.600;2023-05-07T10:16:35;0.77;;;0.77;;
6346;SDS011;3206;42.666;23.600;2023-05-07T10:19:02;1.25;;;1.20;;
6346;SDS011;3206;42.666;23.600;2023-05-07T10:21:29;0.60;;;0.60;;
6346;SDS011;3206;42.666;23.600;2023-05-07T10:23:57;0.88;;;0.88;;
6346;SDS011;3206;42.666;23.600;2023-05-07T10:26:24;1.63;;;1.08;;
6346;SDS011;3206;42.666;23.600;2023-05-07T10:28:53;0.88;;;0.88;;
6346;SDS011;3206;42.666;23.600;2023-05-07T10:31:26;2.17;;;1.45;;
6346;SDS011;3206;42.666;23.600;2023-05-07T10:33:55;3.90;;;1.27;;
6346;SDS011;3206;42.666;23.600;2023-05-07T10:36:22;4.18;;;1.50;;
6346;SDS011;3206;42.666;23.600;2023-05-07T10:38:50;1.85;;;1.48;;
6346;SDS011;3206;42.666;23.600;2023-05-07T10:41:16;1.00;;;0.90;;
6346;SDS011;3206;42.666;23.600;2023-05-07T10:43:44;1.63;;;1.02;;
6346;SDS011;3206;42.666;23.600;2023-05-07T10:46:11;1.13;;;1.02;;
6346;SDS011;3206;42.666;23.600;2023-05-07T10:51:21;0.85;;;0.85;;
6346;SDS011;3206;42.666;23.600;2023-05-07T10:53:48;0.63;;;0.55;;
6346;SDS011;3206;42.666;23.600;2023-05-07T10:56:24;0.93;;;0.93;;
6346;SDS011;3206;42.666;23.600;2023-05-07T10:58:51;2.75;;;1.45;;
6346;SDS011;3206;42.666;23.600;2023-05-07T11:04:12;0.70;;;0.70;;
6346;SDS011;3206;42.666;23.600;2023-05-07T11:06:40;0.65;;;0.65;;
6346;SDS011;3206;42.666;23.600;2023-05-07T11:09:06;0.90;;;0.90;;
6346;SDS011;3206;42.666;23.600;2023-05-07T11:11:43;0.90;;;0.90;;
6346;SDS011;3206;42.666;23.600;2023-05-07T11:14:10;0.73;;;0.73;;
6346;SDS011;3206;42.666;23.600;2023-05-07T11:16:36;4.32;;;0.90;;
6346;SDS011;3206;42.666;23.600;2023-05-07T11:19:03;0.70;;;0.70;;
6346;SDS011;3206;42.666;23.600;2023-05-07T11:21:33;0.85;;;0.73;;
6346;SDS011;3206;42.666;23.600;2023-05-07T11:24:02;0.80;;;0.80;;
6346;SDS011;3206;42.666;23.600;2023-05-07T11:26:29;0.63;;;0.63;;
6346;SDS011;3206;42.666;23.600;2023-05-07T11:28:56;1.08;;;1.08;;
6346;SDS011;3206;42.666;23.600;2023-05-07T11:31:25;1.15;;;1.05;;
6346;SDS011;3206;42.666;23.600;2023-05-07T11:33:54;1.00;;;0.95;;
6346;SDS011;3206;42.666;23.600;2023-05-07T11:36:22;1.88;;;1.00;;
6346;SDS011;3206;42.666;23.600;2023-05-07T11:38:48;1.30;;;1.20;;
6346;SDS011;3206;42.666;23.600;2023-05-07T11:41:16;1.20;;;1.15;;
6346;SDS011;3206;42.666;23.600;2023-05-07T11:43:56;0.70;;;0.70;;
6346;SDS011;3206;42.666;23.600;2023-05-07T11:46:22;1.02;;;0.93;;
6346;SDS011;3206;42.666;23.600;2023-05-07T11:48:49;0.90;;;0.90;;
6346;SDS011;3206;42.666;23.600;2023-05-07T11:51:18;1.05;;;0.90;;
6346;SDS011;3206;42.666;23.600;2023-05-07T11:53:45;0.90;;;0.90;;
6346;SDS011;3206;42.666;23.600;2023-05-07T11:56:12;1.50;;;1.05;;
6346;SDS011;3206;42.666;23.600;2023-05-07T11:58:39;1.30;;;1.17;;
6346;SDS011;3206;42.666;23.600;2023-05-07T12:01:07;0.85;;;0.75;;
6346;SDS011;3206;42.666;23.600;2023-05-07T12:03:34;0.90;;;0.90;;
6346;SDS011;3206;42.666;23.600;2023-05-07T12:06:01;1.95;;;1.10;;
6346;SDS011;3206;42.666;23.600;2023-05-07T12:08:27;1.20;;;1.17;;
6346;SDS011;3206;42.666;23.600;2023-05-07T12:10:54;1.27;;;1.15;;
6346;SDS011;3206;42.666;23.600;2023-05-07T12:13:21;1.17;;;1.17;;
6346;SDS011;3206;42.666;23.600;2023-05-07T12:15:51;1.27;;;1.25;;
6346;SDS011;3206;42.666;23.600;2023-05-07T12:18:17;1.10;;;0.95;;
6346;SDS011;3206;42.666;23.600;2023-05-07T12:20:44;1.25;;;1.15;;
6346;SDS011;3206;42.666;23.600;2023-05-07T12:23:10;1.35;;;1.23;;
6346;SDS011;3206;42.666;23.600;2023-05-07T12:25:37;1.60;;;1.20;;
6346;SDS011;3206;42.666;23.600;2023-05-07T12:28:04;2.67;;;1.40;;
6346;SDS011;3206;42.666;23.600;2023-05-07T12:30:31;0.90;;;0.90;;
6346;SDS011;3206;42.666;23.600;2023-05-07T12:32:59;1.02;;;1.02;;
6346;SDS011;3206;42.666;23.600;2023-05-07T12:35:28;1.48;;;1.38;;
6346;SDS011;3206;42.666;23.600;2023-05-07T12:37:55;1.63;;;1.52;;
6346;SDS011;3206;42.666;23.600;2023-05-07T12:40:21;6.72;;;1.95;;
6346;SDS011;3206;42.666;23.600;2023-05-07T12:42:48;2.30;;;1.77;;
6346;SDS011;3206;42.666;23.600;2023-05-07T12:45:18;1.50;;;1.38;;
6346;SDS011;3206;42.666;23.600;2023-05-07T12:47:45;2.08;;;1.30;;
6346;SDS011;3206;42.666;23.600;2023-05-07T12:50:13;1.58;;;1.35;;
6346;SDS011;3206;42.666;23.600;2023-05-07T12:52:40;1.92;;;1.27;;
6346;SDS011;3206;42.666;23.600;2023-05-07T12:55:07;1.98;;;1.40;;
6346;SDS011;3206;42.666;23.600;2023-05-07T12:57:37;1.40;;;1.30;;
6346;SDS011;3206;42.666;23.600;2023-05-07T13:00:04;1.70;;;1.50;;
6346;SDS011;3206;42.666;23.600;2023-05-07T13:02:32;1.63;;;1.52;;
6346;SDS011;3206;42.666;23.600;2023-05-07T13:04:58;1.63;;;1.23;;
6346;SDS011;3206;42.666;23.600;2023-05-07T13:07:26;1.35;;;0.90;;
6346;SDS011;3206;42.666;23.600;2023-05-07T13:09:52;1.95;;;1.65;;
6346;SDS011;3206;42.666;23.600;2023-05-07T13:12:19;1.85;;;1.50;;
6346;SDS011;3206;42.666;23.600;2023-05-07T13:14:45;1.35;;;1.13;;
6346;SDS011;3206;42.666;23.600;2023-05-07T13:17:11;1.27;;;1.17;;
6346;SDS011;3206;42.666;23.600;2023-05-07T13:19:38;2.78;;;1.45;;
6346;SDS011;3206;42.666;23.600;2023-05-07T13:22:04;1.48;;;1.38;;
6346;SDS011;3206;42.666;23.600;2023-05-07T13:24:32;1.98;;;1.48;;
6346;SDS011;3206;42.666;23.600;2023-05-07T13:26:58;1.42;;;1.33;;
6346;SDS011;3206;42.666;23.600;2023-05-07T13:29:25;1.80;;;1.73;;
6346;SDS011;3206;42.666;23.600;2023-05-07T13:31:56;1.35;;;1.27;;
6346;SDS011;3206;42.666;23.600;2023-05-07T13:34:22;1.88;;;1.42;;
6346;SDS011;3206;42.666;23.600;2023-05-07T13:36:49;1.52;;;1.25;;
6346;SDS011;3206;42.666;23.600;2023-05-07T13:39:15;3.00;;;1.77;;
6346;SDS011;3206;42.666;23.600;2023-05-07T13:41:43;1.60;;;1.15;;
6346;SDS011;3206;42.666;23.600;2023-05-07T13:44:10;1.58;;;1.42;;
6346;SDS011;3206;42.666;23.600;2023-05-07T13:46:36;2.47;;;1.55;;
6346;SDS011;3206;42.666;23.600;2023-05-07T13:49:02;1.63;;;1.50;;
6346;SDS011;3206;42.666;23.600;2023-05-07T13:51:29;1.67;;;1.55;;
6346;SDS011;3206;42.666;23.600;2023-05-07T13:53:56;2.45;;;1.50;;
6346;SDS011;3206;42.666;23.600;2023-05-07T13:56:23;2.67;;;1.48;;
6346;SDS011;3206;42.666;23.600;2023-05-07T13:58:51;2.92;;;1.65;;
6346;SDS011;3206;42.666;23.600;2023-05-07T14:01:17;2.97;;;1.10;;
6346;SDS011;3206;42.666;23.600;2023-05-07T14:03:44;1.67;;;1.45;;
6346;SDS011;3206;42.666;23.600;2023-05-07T14:06:10;1.42;;;1.33;;
6346;SDS011;3206;42.666;23.600;2023-05-07T14:08:36;2.38;;;1.60;;
6346;SDS011;3206;42.666;23.600;2023-05-07T14:11:03;2.70;;;1.88;;
6346;SDS011;3206;42.666;23.600;2023-05-07T14:13:29;1.02;;;1.02;;
6346;SDS011;3206;42.666;23.600;2023-05-07T14:15:57;2.92;;;1.48;;
6346;SDS011;3206;42.666;23.600;2023-05-07T14:18:23;1.35;;;1.25;;
6346;SDS011;3206;42.666;23.600;2023-05-07T14:20:50;1.45;;;1.35;;
6346;SDS011;3206;42.666;23.600;2023-05-07T14:23:16;1.88;;;1.58;;
6346;SDS011;3206;42.666;23.600;2023-05-07T14:25:44;1.58;;;1.23;;
6346;SDS011;3206;42.666;23.600;2023-05-07T14:28:12;1.23;;;1.13;;
6346;SDS011;3206;42.666;23.600;2023-05-07T14:30:38;2.45;;;1.27;;
6346;SDS011;3206;42.666;23.600;2023-05-07T14:33:06;2.15;;;1.38;;
6346;SDS011;3206;42.666;23.600;2023-05-07T14:35:33;1.50;;;1.40;;
6346;SDS011;3206;42.666;23.600;2023-05-07T14:37:59;1.40;;;1.15;;
6346;SDS011;3206;42.666;23.600;2023-05-07T14:40:25;1.38;;;1.27;;
6346;SDS011;3206;42.666;23.600;2023-05-07T14:42:52;1.25;;;1.13;;
6346;SDS011;3206;42.666;23.600;2023-05-07T14:45:18;1.23;;;1.23;;
6346;SDS011;3206;42.666;23.600;2023-05-07T14:47:45;1.92;;;1.33;;
6346;SDS011;3206;42.666;23.600;2023-05-07T14:50:12;2.03;;;1.80;;
6346;SDS011;3206;42.666;23.600;2023-05-07T14:52:39;4.57;;;1.52;;
6346;SDS011;3206;42.666;23.600;2023-05-07T14:55:05;1.40;;;1.10;;
6346;SDS011;3206;42.666;23.600;2023-05-07T14:57:32;1.30;;;1.30;;
6346;SDS011;3206;42.666;23.600;2023-05-07T15:00:00;1.50;;;1.40;;
6346;SDS011;3206;42.666;23.600;2023-05-07T15:02:26;1.95;;;1.30;;
6346;SDS011;3206;42.666;23.600;2023-05-07T15:04:52;1.00;;;1.00;;